sensor_id;sensor_type;location;lat;lon;timestamp;P1;durP1;ratioP1;P2;durP2;ratioP2
81811;SDS011;71243;51.848;5.768;2023-07-09T00:01:06;15.32;;;6.47;;
81811;SDS011;71243;51.848;5.768;2023-07-09T00:03:37;12.23;;;6.45;;
81811;SDS011;71243;51.848;5.768;2023-07-09T00:06:03;11.80;;;6.37;;
81811;SDS011;71243;51.848;5.768;2023-07-09T00:08:28;11.43;;;6.03;;
81811;SDS011;71243;51.848;5.768;2023-07-09T00:10:55;12.25;;;6.40;;
81811;SDS011;71243;51.848;5.768;2023-07-09T00:13:22;12.50;;;7.15;;
81811;SDS011;71243;51.848;5.768;2023-07-09T00:15:50;13.70;;;7.45;;
81811;SDS011;71243;51.848;5.768;2023-07-09T00:18:17;13.00;;;7.10;;
81811;SDS011;71243;51.848;5.768;2023-07-09T00:20:42;15.65;;;7.70;;
81811;SDS011;71243;51.848;5.768;2023-07-09T00:23:08;13.77;;;7.63;;
81811;SDS011;71243;51.848;5.768;2023-07-09T00:25:33;13.90;;;7.28;;
81811;SDS011;71243;51.848;5.768;2023-07-09T00:27:58;15.17;;;7.60;;
81811;SDS011;71243;51.848;5.768;2023-07-09T00:30:24;13.40;;;7.53;;
81811;SDS011;71243;51.848;5.768;2023-07-09T00:32:49;10.60;;;6.83;;
81811;SDS011;71243;51.848;5.768;2023-07-09T00:35:15;12.75;;;6.95;;
81811;SDS011;71243;51.848;5.768;2023-07-09T00:37:41;11.27;;;6.63;;
81811;SDS011;71243;51.848;5.768;2023-07-09T00:40:13;13.13;;;7.25;;
81811;SDS011;71243;51.848;5.768;2023-07-09T00:42:49;14.57;;;7.18;;
81811;SDS011;71243;51.848;5.768;2023-07-09T00:45:18;12.57;;;6.82;;
81811;SDS011;71243;51.848;5.768;2023-07-09T00:50:31;14.63;;;7.60;;
81811;SDS011;71243;51.848;5.768;2023-07-09T00:53:24;17.00;;;7.32;;
81811;SDS011;71243;51.848;5.768;2023-07-09T00:56:13;15.48;;;7.22;;
81811;SDS011;71243;51.848;5.768;2023-07-09T00:58:42;16.98;;;7.88;;
81811;SDS011;71243;51.848;5.768;2023-07-09T01:01:09;15.15;;;7.78;;
81811;SDS011;71243;51.848;5.768;2023-07-09T01:03:39;14.52;;;7.00;;
81811;SDS011;71243;51.848;5.768;2023-07-09T01:06:07;13.52;;;7.53;;
81811;SDS011;71243;51.848;5.768;2023-07-09T01:08:34;14.85;;;7.75;;
81811;SDS011;71243;51.848;5.768;2023-07-09T01:11:01;13.35;;;6.65;;
81811;SDS011;71243;51.848;5.768;2023-07-09T01:13:27;13.13;;;7.97;;
81811;SDS011;71243;51.848;5.768;2023-07-09T01:15:53;14.07;;;7.70;;
81811;SDS011;71243;51.848;5.768;2023-07-09T01:18:20;14.63;;;7.70;;
81811;SDS011;71243;51.848;5.768;2023-07-09T01:20:45;15.20;;;7.50;;
81811;SDS011;71243;51.848;5.768;2023-07-09T01:23:10;13.27;;;7.10;;
81811;SDS011;71243;51.848;5.768;2023-07-09T01:25:36;13.15;;;7.10;;
81811;SDS011;71243;51.848;5.768;2023-07-09T01:28:07;13.05;;;7.35;;
81811;SDS011;71243;51.848;5.768;2023-07-09T01:30:36;13.55;;;7.00;;
81811;SDS011;71243;51.848;5.768;2023-07-09T01:33:05;13.20;;;7.38;;
81811;SDS011;71243;51.848;5.768;2023-07-09T01:35:31;12.35;;;7.15;;
81811;SDS011;71243;51.848;5.768;2023-07-09T01:37:59;13.13;;;7.57;;
81811;SDS011;71243;51.848;5.768;2023-07-09T01:40:25;12.73;;;7.63;;
81811;SDS011;71243;51.848;5.768;2023-07-09T01:42:53;12.35;;;7.20;;
81811;SDS011;71243;51.848;5.768;2023-07-09T01:45:19;14.85;;;7.97;;
81811;SDS011;71243;51.848;5.768;2023-07-09T01:47:44;14.03;;;7.70;;
81811;SDS011;71243;51.848;5.768;2023-07-09T01:50:10;15.87;;;7.70;;
81811;SDS011;71243;51.848;5.768;2023-07-09T01:52:36;13.20;;;7.60;;
81811;SDS011;71243;51.848;5.768;2023-07-09T01:55:03;16.15;;;7.90;;
81811;SDS011;71243;51.848;5.768;2023-07-09T01:57:30;13.80;;;7.60;;
81811;SDS011;71243;51.848;5.768;2023-07-09T01:59:56;12.43;;;7.80;;
81811;SDS011;71243;51.848;5.768;2023-07-09T02:02:22;14.10;;;7.20;;
81811;SDS011;71243;51.848;5.768;2023-07-09T02:04:48;14.02;;;7.57;;
81811;SDS011;71243;51.848;5.768;2023-07-09T02:07:18;14.32;;;7.53;;
81811;SDS011;71243;51.848;5.768;2023-07-09T02:09:44;15.45;;;7.50;;
81811;SDS011;71243;51.848;5.768;2023-07-09T02:12:10;14.57;;;7.03;;
81811;SDS011;71243;51.848;5.768;2023-07-09T02:14:37;13.73;;;7.63;;
81811;SDS011;71243;51.848;5.768;2023-07-09T02:17:02;14.23;;;8.57;;
81811;SDS011;71243;51.848;5.768;2023-07-09T02:19:28;15.20;;;9.13;;
81811;SDS011;71243;51.848;5.768;2023-07-09T02:21:54;14.30;;;8.23;;
81811;SDS011;71243;51.848;5.768;2023-07-09T02:24:20;15.25;;;8.75;;
81811;SDS011;71243;51.848;5.768;2023-07-09T02:26:45;14.75;;;8.52;;
81811;SDS011;71243;51.848;5.768;2023-07-09T02:29:10;16.23;;;9.83;;
81811;SDS011;71243;51.848;5.768;2023-07-09T02:31:36;15.15;;;9.85;;
81811;SDS011;71243;51.848;5.768;2023-07-09T02:34:01;19.63;;;9.90;;
81811;SDS011;71243;51.848;5.768;2023-07-09T02:36:26;16.20;;;9.15;;
81811;SDS011;71243;51.848;5.768;2023-07-09T02:38:51;15.90;;;10.57;;
81811;SDS011;71243;51.848;5.768;2023-07-09T02:41:17;16.60;;;10.00;;
81811;SDS011;71243;51.848;5.768;2023-07-09T02:43:42;16.63;;;9.77;;
81811;SDS011;71243;51.848;5.768;2023-07-09T02:46:07;15.55;;;8.65;;
81811;SDS011;71243;51.848;5.768;2023-07-09T02:48:33;14.27;;;9.35;;
81811;SDS011;71243;51.848;5.768;2023-07-09T02:50:58;14.50;;;9.70;;
81811;SDS011;71243;51.848;5.768;2023-07-09T02:53:23;15.80;;;8.90;;
81811;SDS011;71243;51.848;5.768;2023-07-09T02:55:48;15.38;;;9.40;;
81811;SDS011;71243;51.848;5.768;2023-07-09T02:58:14;16.27;;;9.30;;
81811;SDS011;71243;51.848;5.768;2023-07-09T03:00:39;16.13;;;8.73;;
81811;SDS011;71243;51.848;5.768;2023-07-09T03:03:04;16.67;;;9.43;;
81811;SDS011;71243;51.848;5.768;2023-07-09T03:05:29;16.90;;;9.10;;
81811;SDS011;71243;51.848;5.768;2023-07-09T03:07:55;15.63;;;9.27;;
81811;SDS011;71243;51.848;5.768;2023-07-09T03:10:20;14.43;;;8.80;;
81811;SDS011;71243;51.848;5.768;2023-07-09T03:12:45;14.60;;;8.73;;
81811;SDS011;71243;51.848;5.768;2023-07-09T03:15:11;15.03;;;8.73;;
81811;SDS011;71243;51.848;5.768;2023-07-09T03:17:36;15.73;;;9.73;;
81811;SDS011;71243;51.848;5.768;2023-07-09T03:20:02;17.90;;;10.87;;
81811;SDS011;71243;51.848;5.768;2023-07-09T03:22:27;16.65;;;10.45;;
81811;SDS011;71243;51.848;5.768;2023-07-09T03:24:53;21.50;;;10.57;;
81811;SDS011;71243;51.848;5.768;2023-07-09T03:27:18;17.50;;;10.43;;
81811;SDS011;71243;51.848;5.768;2023-07-09T03:29:43;14.47;;;9.13;;
81811;SDS011;71243;51.848;5.768;2023-07-09T03:32:08;16.00;;;9.70;;
81811;SDS011;71243;51.848;5.768;2023-07-09T03:34:33;17.08;;;9.75;;
81811;SDS011;71243;51.848;5.768;2023-07-09T03:36:59;16.10;;;9.97;;
81811;SDS011;71243;51.848;5.768;2023-07-09T03:39:24;16.63;;;9.50;;
81811;SDS011;71243;51.848;5.768;2023-07-09T03:41:49;16.27;;;9.80;;
81811;SDS011;71243;51.848;5.768;2023-07-09T03:44:14;15.97;;;9.57;;
81811;SDS011;71243;51.848;5.768;2023-07-09T03:46:40;17.13;;;9.13;;
81811;SDS011;71243;51.848;5.768;2023-07-09T03:49:05;16.70;;;9.60;;
81811;SDS011;71243;51.848;5.768;2023-07-09T03:51:30;16.65;;;10.48;;
81811;SDS011;71243;51.848;5.768;2023-07-09T03:53:55;16.20;;;9.57;;
81811;SDS011;71243;51.848;5.768;2023-07-09T03:56:20;14.47;;;9.37;;
81811;SDS011;71243;51.848;5.768;2023-07-09T03:58:46;18.27;;;9.30;;
81811;SDS011;71243;51.848;5.768;2023-07-09T04:01:11;16.27;;;9.20;;
81811;SDS011;71243;51.848;5.768;2023-07-09T04:03:36;18.50;;;9.60;;
81811;SDS011;71243;51.848;5.768;2023-07-09T04:06:02;16.60;;;8.95;;
81811;SDS011;71243;51.848;5.768;2023-07-09T04:08:27;17.10;;;9.75;;
81811;SDS011;71243;51.848;5.768;2023-07-09T04:10:53;16.95;;;10.30;;
81811;SDS011;71243;51.848;5.768;2023-07-09T04:13:19;16.95;;;9.63;;
81811;SDS011;71243;51.848;5.768;2023-07-09T04:15:44;17.03;;;9.37;;
81811;SDS011;71243;51.848;5.768;2023-07-09T04:18:09;15.27;;;10.00;;
81811;SDS011;71243;51.848;5.768;2023-07-09T04:20:34;18.73;;;10.03;;
81811;SDS011;71243;51.848;5.768;2023-07-09T04:23:00;19.47;;;11.10;;
81811;SDS011;71243;51.848;5.768;2023-07-09T04:25:25;19.33;;;10.68;;
81811;SDS011;71243;51.848;5.768;2023-07-09T04:27:50;21.40;;;10.38;;
81811;SDS011;71243;51.848;5.768;2023-07-09T04:30:16;16.17;;;9.47;;
81811;SDS011;71243;51.848;5.768;2023-07-09T04:32:44;17.15;;;10.35;;
81811;SDS011;71243;51.848;5.768;2023-07-09T04:35:10;16.15;;;9.85;;
81811;SDS011;71243;51.848;5.768;2023-07-09T04:37:37;16.42;;;10.48;;
81811;SDS011;71243;51.848;5.768;2023-07-09T04:40:03;16.20;;;9.73;;
81811;SDS011;71243;51.848;5.768;2023-07-09T04:42:29;16.80;;;10.07;;
81811;SDS011;71243;51.848;5.768;2023-07-09T04:44:54;17.87;;;11.17;;
81811;SDS011;71243;51.848;5.768;2023-07-09T04:47:20;17.27;;;10.13;;
81811;SDS011;71243;51.848;5.768;2023-07-09T04:49:45;18.90;;;10.10;;
81811;SDS011;71243;51.848;5.768;2023-07-09T04:52:10;16.93;;;10.43;;
81811;SDS011;71243;51.848;5.768;2023-07-09T04:54:35;15.07;;;10.03;;
81811;SDS011;71243;51.848;5.768;2023-07-09T04:57:00;18.00;;;11.63;;
81811;SDS011;71243;51.848;5.768;2023-07-09T04:59:26;18.10;;;11.50;;
81811;SDS011;71243;51.848;5.768;2023-07-09T05:01:51;25.00;;;10.20;;
81811;SDS011;71243;51.848;5.768;2023-07-09T05:04:16;18.87;;;11.63;;
81811;SDS011;71243;51.848;5.768;2023-07-09T05:06:41;20.77;;;11.70;;
81811;SDS011;71243;51.848;5.768;2023-07-09T05:09:07;18.80;;;11.00;;
81811;SDS011;71243;51.848;5.768;2023-07-09T05:11:33;18.83;;;10.85;;
81811;SDS011;71243;51.848;5.768;2023-07-09T05:13:59;20.40;;;11.82;;
81811;SDS011;71243;51.848;5.768;2023-07-09T05:16:25;19.20;;;12.20;;
81811;SDS011;71243;51.848;5.768;2023-07-09T05:18:50;20.88;;;12.93;;
81811;SDS011;71243;51.848;5.768;2023-07-09T05:21:15;19.08;;;12.65;;
81811;SDS011;71243;51.848;5.768;2023-07-09T05:23:40;21.50;;;13.43;;
81811;SDS011;71243;51.848;5.768;2023-07-09T05:26:06;19.37;;;12.20;;
81811;SDS011;71243;51.848;5.768;2023-07-09T05:28:31;20.35;;;12.80;;
81811;SDS011;71243;51.848;5.768;2023-07-09T05:30:56;20.77;;;13.40;;
81811;SDS011;71243;51.848;5.768;2023-07-09T05:33:22;20.23;;;11.87;;
81811;SDS011;71243;51.848;5.768;2023-07-09T05:35:47;19.38;;;11.13;;
81811;SDS011;71243;51.848;5.768;2023-07-09T05:38:13;19.17;;;10.95;;
81811;SDS011;71243;51.848;5.768;2023-07-09T05:40:39;21.25;;;11.73;;
81811;SDS011;71243;51.848;5.768;2023-07-09T05:43:05;17.23;;;11.35;;
81811;SDS011;71243;51.848;5.768;2023-07-09T05:45:31;18.33;;;12.80;;
81811;SDS011;71243;51.848;5.768;2023-07-09T05:47:59;22.45;;;13.25;;
81811;SDS011;71243;51.848;5.768;2023-07-09T05:50:25;19.50;;;10.95;;
81811;SDS011;71243;51.848;5.768;2023-07-09T05:52:51;19.17;;;11.10;;
81811;SDS011;71243;51.848;5.768;2023-07-09T05:55:17;24.30;;;12.53;;
81811;SDS011;71243;51.848;5.768;2023-07-09T05:57:42;18.98;;;11.38;;
81811;SDS011;71243;51.848;5.768;2023-07-09T06:00:08;17.98;;;10.77;;
81811;SDS011;71243;51.848;5.768;2023-07-09T06:02:33;22.15;;;12.50;;
81811;SDS011;71243;51.848;5.768;2023-07-09T06:04:59;18.33;;;10.52;;
81811;SDS011;71243;51.848;5.768;2023-07-09T06:07:24;17.93;;;10.77;;
81811;SDS011;71243;51.848;5.768;2023-07-09T06:09:50;16.67;;;9.90;;
81811;SDS011;71243;51.848;5.768;2023-07-09T06:12:15;16.70;;;10.63;;
81811;SDS011;71243;51.848;5.768;2023-07-09T06:14:40;17.85;;;10.63;;
81811;SDS011;71243;51.848;5.768;2023-07-09T06:17:06;19.83;;;10.60;;
81811;SDS011;71243;51.848;5.768;2023-07-09T06:19:31;18.30;;;10.60;;
81811;SDS011;71243;51.848;5.768;2023-07-09T06:21:56;15.02;;;9.55;;
81811;SDS011;71243;51.848;5.768;2023-07-09T06:24:22;16.88;;;9.90;;
81811;SDS011;71243;51.848;5.768;2023-07-09T06:26:48;16.17;;;8.90;;
81811;SDS011;71243;51.848;5.768;2023-07-09T06:29:13;18.17;;;10.18;;
81811;SDS011;71243;51.848;5.768;2023-07-09T06:31:38;16.80;;;9.18;;
81811;SDS011;71243;51.848;5.768;2023-07-09T06:34:03;13.77;;;9.07;;
81811;SDS011;71243;51.848;5.768;2023-07-09T06:36:29;16.48;;;9.73;;
81811;SDS011;71243;51.848;5.768;2023-07-09T06:38:54;16.50;;;9.38;;
81811;SDS011;71243;51.848;5.768;2023-07-09T06:41:19;16.47;;;9.40;;
81811;SDS011;71243;51.848;5.768;2023-07-09T06:43:44;16.77;;;8.67;;
81811;SDS011;71243;51.848;5.768;2023-07-09T06:46:11;15.38;;;8.90;;
81811;SDS011;71243;51.848;5.768;2023-07-09T06:48:38;15.75;;;8.45;;
81811;SDS011;71243;51.848;5.768;2023-07-09T06:51:04;16.52;;;8.70;;
81811;SDS011;71243;51.848;5.768;2023-07-09T06:53:29;13.40;;;8.40;;
81811;SDS011;71243;51.848;5.768;2023-07-09T06:55:54;15.25;;;7.75;;
81811;SDS011;71243;51.848;5.768;2023-07-09T06:58:21;17.75;;;8.50;;
81811;SDS011;71243;51.848;5.768;2023-07-09T07:00:48;13.57;;;7.70;;
81811;SDS011;71243;51.848;5.768;2023-07-09T07:03:13;13.18;;;8.00;;
81811;SDS011;71243;51.848;5.768;2023-07-09T07:05:42;14.37;;;8.43;;
81811;SDS011;71243;51.848;5.768;2023-07-09T07:08:13;13.75;;;8.23;;
81811;SDS011;71243;51.848;5.768;2023-07-09T07:10:39;13.63;;;8.32;;
81811;SDS011;71243;51.848;5.768;2023-07-09T07:13:04;15.57;;;8.27;;
81811;SDS011;71243;51.848;5.768;2023-07-09T07:15:29;12.40;;;7.13;;
81811;SDS011;71243;51.848;5.768;2023-07-09T07:17:55;13.90;;;7.60;;
81811;SDS011;71243;51.848;5.768;2023-07-09T07:20:20;12.40;;;6.00;;
81811;SDS011;71243;51.848;5.768;2023-07-09T07:22:45;13.07;;;6.83;;
81811;SDS011;71243;51.848;5.768;2023-07-09T07:25:11;13.00;;;6.93;;
81811;SDS011;71243;51.848;5.768;2023-07-09T07:27:36;12.25;;;6.30;;
81811;SDS011;71243;51.848;5.768;2023-07-09T07:30:02;12.98;;;6.45;;
81811;SDS011;71243;51.848;5.768;2023-07-09T07:32:27;12.55;;;6.20;;
81811;SDS011;71243;51.848;5.768;2023-07-09T07:34:52;12.88;;;6.13;;
81811;SDS011;71243;51.848;5.768;2023-07-09T07:37:18;10.97;;;5.67;;
81811;SDS011;71243;51.848;5.768;2023-07-09T07:39:44;13.30;;;6.38;;
81811;SDS011;71243;51.848;5.768;2023-07-09T07:42:09;14.50;;;6.00;;
81811;SDS011;71243;51.848;5.768;2023-07-09T07:44:34;11.50;;;6.03;;
81811;SDS011;71243;51.848;5.768;2023-07-09T07:46:59;12.10;;;5.65;;
81811;SDS011;71243;51.848;5.768;2023-07-09T07:49:24;10.43;;;5.93;;
81811;SDS011;71243;51.848;5.768;2023-07-09T07:51:50;11.27;;;5.20;;
81811;SDS011;71243;51.848;5.768;2023-07-09T07:54:15;14.00;;;6.23;;
81811;SDS011;71243;51.848;5.768;2023-07-09T07:56:40;13.90;;;6.10;;
81811;SDS011;71243;51.848;5.768;2023-07-09T07:59:06;10.48;;;5.80;;
81811;SDS011;71243;51.848;5.768;2023-07-09T08:01:31;12.50;;;5.95;;
81811;SDS011;71243;51.848;5.768;2023-07-09T08:03:57;12.38;;;5.68;;
81811;SDS011;71243;51.848;5.768;2023-07-09T08:06:22;11.53;;;5.50;;
81811;SDS011;71243;51.848;5.768;2023-07-09T08:08:47;13.60;;;5.17;;
81811;SDS011;71243;51.848;5.768;2023-07-09T08:11:13;9.93;;;4.45;;
81811;SDS011;71243;51.848;5.768;2023-07-09T08:13:38;11.35;;;5.45;;
81811;SDS011;71243;51.848;5.768;2023-07-09T08:16:04;12.70;;;5.23;;
81811;SDS011;71243;51.848;5.768;2023-07-09T08:18:31;10.95;;;5.35;;
81811;SDS011;71243;51.848;5.768;2023-07-09T08:20:57;13.50;;;5.53;;
81811;SDS011;71243;51.848;5.768;2023-07-09T08:23:23;10.38;;;5.20;;
81811;SDS011;71243;51.848;5.768;2023-07-09T08:25:52;11.90;;;4.83;;
81811;SDS011;71243;51.848;5.768;2023-07-09T08:28:18;10.88;;;4.70;;
81811;SDS011;71243;51.848;5.768;2023-07-09T08:30:43;9.45;;;4.72;;
81811;SDS011;71243;51.848;5.768;2023-07-09T08:33:09;10.80;;;5.30;;
81811;SDS011;71243;51.848;5.768;2023-07-09T08:35:34;10.07;;;5.07;;
81811;SDS011;71243;51.848;5.768;2023-07-09T08:37:59;10.23;;;4.97;;
81811;SDS011;71243;51.848;5.768;2023-07-09T08:40:24;11.07;;;5.13;;
81811;SDS011;71243;51.848;5.768;2023-07-09T08:42:51;11.63;;;5.35;;
81811;SDS011;71243;51.848;5.768;2023-07-09T08:45:33;11.82;;;5.43;;
81811;SDS011;71243;51.848;5.768;2023-07-09T08:48:09;11.35;;;6.05;;
81811;SDS011;71243;51.848;5.768;2023-07-09T08:50:42;11.13;;;5.45;;
81811;SDS011;71243;51.848;5.768;2023-07-09T08:53:20;11.98;;;5.95;;
81811;SDS011;71243;51.848;5.768;2023-07-09T08:58:22;10.70;;;5.82;;
81811;SDS011;71243;51.848;5.768;2023-07-09T09:00:54;9.55;;;5.13;;
81811;SDS011;71243;51.848;5.768;2023-07-09T09:08:40;12.00;;;5.50;;
81811;SDS011;71243;51.848;5.768;2023-07-09T09:13:55;10.52;;;5.40;;
81811;SDS011;71243;51.848;5.768;2023-07-09T09:18:54;11.38;;;4.20;;
81811;SDS011;71243;51.848;5.768;2023-07-09T09:21:23;9.32;;;4.43;;
81811;SDS011;71243;51.848;5.768;2023-07-09T09:23:54;11.00;;;5.18;;
81811;SDS011;71243;51.848;5.768;2023-07-09T09:26:34;11.25;;;4.30;;
81811;SDS011;71243;51.848;5.768;2023-07-09T09:29:01;8.75;;;4.68;;
81811;SDS011;71243;51.848;5.768;2023-07-09T09:31:36;8.75;;;3.90;;
81811;SDS011;71243;51.848;5.768;2023-07-09T09:34:01;12.07;;;4.53;;
81811;SDS011;71243;51.848;5.768;2023-07-09T09:36:26;10.10;;;4.30;;
81811;SDS011;71243;51.848;5.768;2023-07-09T09:38:52;8.17;;;3.87;;
81811;SDS011;71243;51.848;5.768;2023-07-09T09:41:19;10.15;;;4.30;;
81811;SDS011;71243;51.848;5.768;2023-07-09T09:43:47;8.75;;;4.60;;
81811;SDS011;71243;51.848;5.768;2023-07-09T09:46:21;10.55;;;4.30;;
81811;SDS011;71243;51.848;5.768;2023-07-09T09:48:48;11.77;;;4.93;;
81811;SDS011;71243;51.848;5.768;2023-07-09T09:51:18;9.55;;;4.40;;
81811;SDS011;71243;51.848;5.768;2023-07-09T09:53:46;9.85;;;4.07;;
81811;SDS011;71243;51.848;5.768;2023-07-09T09:56:14;7.47;;;4.22;;
81811;SDS011;71243;51.848;5.768;2023-07-09T09:58:43;9.00;;;4.15;;
81811;SDS011;71243;51.848;5.768;2023-07-09T10:01:13;8.80;;;4.60;;
81811;SDS011;71243;51.848;5.768;2023-07-09T10:03:40;10.65;;;4.45;;
81811;SDS011;71243;51.848;5.768;2023-07-09T10:06:10;9.35;;;5.07;;
81811;SDS011;71243;51.848;5.768;2023-07-09T10:22:22;12.30;;;4.65;;
81811;SDS011;71243;51.848;5.768;2023-07-09T10:25:01;9.23;;;5.05;;
81811;SDS011;71243;51.848;5.768;2023-07-09T10:27:37;9.10;;;4.93;;
81811;SDS011;71243;51.848;5.768;2023-07-09T10:39:06;13.50;;;5.15;;
81811;SDS011;71243;51.848;5.768;2023-07-09T10:41:37;9.95;;;4.85;;
81811;SDS011;71243;51.848;5.768;2023-07-09T10:46:30;8.40;;;5.07;;
81811;SDS011;71243;51.848;5.768;2023-07-09T10:48:59;11.45;;;5.18;;
81811;SDS011;71243;51.848;5.768;2023-07-09T10:51:28;9.52;;;5.22;;
81811;SDS011;71243;51.848;5.768;2023-07-09T10:53:58;11.23;;;5.35;;
81811;SDS011;71243;51.848;5.768;2023-07-09T10:56:31;11.10;;;5.45;;
81811;SDS011;71243;51.848;5.768;2023-07-09T11:01:31;8.63;;;5.10;;
81811;SDS011;71243;51.848;5.768;2023-07-09T11:04:05;10.52;;;5.18;;
81811;SDS011;71243;51.848;5.768;2023-07-09T11:06:36;11.32;;;6.05;;
81811;SDS011;71243;51.848;5.768;2023-07-09T11:09:06;8.43;;;4.60;;
81811;SDS011;71243;51.848;5.768;2023-07-09T11:11:49;10.40;;;4.57;;
81811;SDS011;71243;51.848;5.768;2023-07-09T11:14:24;9.90;;;4.55;;
81811;SDS011;71243;51.848;5.768;2023-07-09T11:16:58;9.73;;;4.78;;
81811;SDS011;71243;51.848;5.768;2023-07-09T11:19:24;8.48;;;4.25;;
81811;SDS011;71243;51.848;5.768;2023-07-09T11:22:06;9.20;;;4.72;;
81811;SDS011;71243;51.848;5.768;2023-07-09T11:24:47;10.63;;;4.63;;
81811;SDS011;71243;51.848;5.768;2023-07-09T11:27:31;9.27;;;4.95;;
81811;SDS011;71243;51.848;5.768;2023-07-09T11:30:00;10.15;;;4.72;;
81811;SDS011;71243;51.848;5.768;2023-07-09T11:32:29;9.65;;;4.55;;
81811;SDS011;71243;51.848;5.768;2023-07-09T11:34:54;9.68;;;4.70;;
81811;SDS011;71243;51.848;5.768;2023-07-09T11:37:32;9.52;;;4.47;;
81811;SDS011;71243;51.848;5.768;2023-07-09T11:40:01;10.43;;;4.30;;
81811;SDS011;71243;51.848;5.768;2023-07-09T11:42:50;9.15;;;4.25;;
81811;SDS011;71243;51.848;5.768;2023-07-09T11:45:16;8.30;;;4.07;;
81811;SDS011;71243;51.848;5.768;2023-07-09T11:47:46;9.38;;;4.68;;
81811;SDS011;71243;51.848;5.768;2023-07-09T11:55:47;9.48;;;4.88;;
81811;SDS011;71243;51.848;5.768;2023-07-09T11:58:13;10.20;;;4.27;;
81811;SDS011;71243;51.848;5.768;2023-07-09T12:00:41;10.18;;;4.35;;
81811;SDS011;71243;51.848;5.768;2023-07-09T12:03:09;8.02;;;4.10;;
81811;SDS011;71243;51.848;5.768;2023-07-09T12:05:40;8.00;;;3.95;;
81811;SDS011;71243;51.848;5.768;2023-07-09T12:08:12;9.63;;;4.60;;
81811;SDS011;71243;51.848;5.768;2023-07-09T12:10:41;9.38;;;4.50;;
81811;SDS011;71243;51.848;5.768;2023-07-09T12:13:08;8.32;;;3.60;;
81811;SDS011;71243;51.848;5.768;2023-07-09T12:15:35;9.27;;;4.35;;
81811;SDS011;71243;51.848;5.768;2023-07-09T12:18:09;7.47;;;4.07;;
81811;SDS011;71243;51.848;5.768;2023-07-09T12:20:38;10.50;;;4.80;;
81811;SDS011;71243;51.848;5.768;2023-07-09T12:25:50;9.57;;;5.15;;
81811;SDS011;71243;51.848;5.768;2023-07-09T12:28:17;9.13;;;4.43;;
81811;SDS011;71243;51.848;5.768;2023-07-09T12:30:49;8.82;;;5.10;;
81811;SDS011;71243;51.848;5.768;2023-07-09T12:33:17;10.63;;;5.03;;
81811;SDS011;71243;51.848;5.768;2023-07-09T12:35:45;10.75;;;5.35;;
81811;SDS011;71243;51.848;5.768;2023-07-09T12:38:16;9.80;;;5.70;;
81811;SDS011;71243;51.848;5.768;2023-07-09T12:40:43;9.50;;;5.18;;
81811;SDS011;71243;51.848;5.768;2023-07-09T12:43:09;9.88;;;5.63;;
81811;SDS011;71243;51.848;5.768;2023-07-09T12:45:36;9.18;;;5.30;;
81811;SDS011;71243;51.848;5.768;2023-07-09T12:48:01;11.50;;;5.65;;
81811;SDS011;71243;51.848;5.768;2023-07-09T12:50:30;10.80;;;5.07;;
81811;SDS011;71243;51.848;5.768;2023-07-09T12:53:13;13.68;;;5.65;;
81811;SDS011;71243;51.848;5.768;2023-07-09T12:55:41;10.23;;;5.03;;
81811;SDS011;71243;51.848;5.768;2023-07-09T12:58:09;9.57;;;5.35;;
81811;SDS011;71243;51.848;5.768;2023-07-09T13:00:38;10.60;;;5.60;;
81811;SDS011;71243;51.848;5.768;2023-07-09T13:03:03;10.90;;;5.37;;
81811;SDS011;71243;51.848;5.768;2023-07-09T13:05:38;9.40;;;5.10;;
81811;SDS011;71243;51.848;5.768;2023-07-09T13:08:03;10.70;;;5.27;;
81811;SDS011;71243;51.848;5.768;2023-07-09T13:10:29;10.38;;;5.05;;
81811;SDS011;71243;51.848;5.768;2023-07-09T13:13:02;9.57;;;5.32;;
81811;SDS011;71243;51.848;5.768;2023-07-09T13:15:30;9.30;;;5.47;;
81811;SDS011;71243;51.848;5.768;2023-07-09T13:18:03;11.18;;;5.65;;
81811;SDS011;71243;51.848;5.768;2023-07-09T13:20:30;10.25;;;5.35;;
81811;SDS011;71243;51.848;5.768;2023-07-09T13:22:57;11.55;;;5.82;;
81811;SDS011;71243;51.848;5.768;2023-07-09T13:25:23;13.07;;;5.63;;
81811;SDS011;71243;51.848;5.768;2023-07-09T13:27:49;11.93;;;6.70;;
81811;SDS011;71243;51.848;5.768;2023-07-09T13:30:14;12.05;;;6.68;;
81811;SDS011;71243;51.848;5.768;2023-07-09T13:32:39;11.48;;;6.43;;
81811;SDS011;71243;51.848;5.768;2023-07-09T13:35:22;11.85;;;7.40;;
81811;SDS011;71243;51.848;5.768;2023-07-09T13:37:48;11.05;;;7.30;;
81811;SDS011;71243;51.848;5.768;2023-07-09T13:40:14;12.40;;;7.72;;
81811;SDS011;71243;51.848;5.768;2023-07-09T13:42:41;12.60;;;8.18;;
81811;SDS011;71243;51.848;5.768;2023-07-09T13:45:15;13.38;;;8.13;;
81811;SDS011;71243;51.848;5.768;2023-07-09T13:47:43;12.85;;;8.63;;
81811;SDS011;71243;51.848;5.768;2023-07-09T13:50:08;11.90;;;7.10;;
81811;SDS011;71243;51.848;5.768;2023-07-09T13:52:34;14.48;;;8.23;;
81811;SDS011;71243;51.848;5.768;2023-07-09T13:54:59;14.05;;;7.78;;
81811;SDS011;71243;51.848;5.768;2023-07-09T13:57:25;13.45;;;7.20;;
81811;SDS011;71243;51.848;5.768;2023-07-09T13:59:50;11.17;;;7.00;;
81811;SDS011;71243;51.848;5.768;2023-07-09T14:02:29;11.30;;;6.57;;
81811;SDS011;71243;51.848;5.768;2023-07-09T14:04:56;12.35;;;6.68;;
81811;SDS011;71243;51.848;5.768;2023-07-09T14:07:24;11.43;;;6.80;;
81811;SDS011;71243;51.848;5.768;2023-07-09T14:09:51;10.25;;;5.93;;
81811;SDS011;71243;51.848;5.768;2023-07-09T14:12:16;11.80;;;6.63;;
81811;SDS011;71243;51.848;5.768;2023-07-09T14:14:42;11.02;;;6.15;;
81811;SDS011;71243;51.848;5.768;2023-07-09T14:17:07;11.90;;;6.23;;
81811;SDS011;71243;51.848;5.768;2023-07-09T14:19:32;10.70;;;5.87;;
81811;SDS011;71243;51.848;5.768;2023-07-09T14:21:57;11.20;;;6.40;;
81811;SDS011;71243;51.848;5.768;2023-07-09T14:26:53;10.05;;;6.47;;
81811;SDS011;71243;51.848;5.768;2023-07-09T14:29:23;12.43;;;6.43;;
81811;SDS011;71243;51.848;5.768;2023-07-09T14:31:49;12.48;;;6.53;;
81811;SDS011;71243;51.848;5.768;2023-07-09T14:34:26;11.40;;;6.82;;
81811;SDS011;71243;51.848;5.768;2023-07-09T14:36:54;9.88;;;6.43;;
81811;SDS011;71243;51.848;5.768;2023-07-09T14:39:21;12.35;;;7.10;;
81811;SDS011;71243;51.848;5.768;2023-07-09T14:41:46;11.38;;;6.50;;
81811;SDS011;71243;51.848;5.768;2023-07-09T14:44:18;13.00;;;7.15;;
81811;SDS011;71243;51.848;5.768;2023-07-09T14:46:48;11.68;;;5.32;;
81811;SDS011;71243;51.848;5.768;2023-07-09T14:49:13;8.90;;;4.70;;
81811;SDS011;71243;51.848;5.768;2023-07-09T14:51:39;8.67;;;3.80;;
81811;SDS011;71243;51.848;5.768;2023-07-09T14:56:43;7.50;;;2.90;;
81811;SDS011;71243;51.848;5.768;2023-07-09T14:59:08;8.67;;;3.57;;
81811;SDS011;71243;51.848;5.768;2023-07-09T15:01:33;10.13;;;3.53;;
81811;SDS011;71243;51.848;5.768;2023-07-09T15:03:59;8.83;;;3.63;;
81811;SDS011;71243;51.848;5.768;2023-07-09T15:06:24;7.87;;;3.07;;
81811;SDS011;71243;51.848;5.768;2023-07-09T15:08:49;8.30;;;3.23;;
81811;SDS011;71243;51.848;5.768;2023-07-09T15:11:14;8.17;;;3.33;;
81811;SDS011;71243;51.848;5.768;2023-07-09T15:13:39;9.33;;;2.73;;
81811;SDS011;71243;51.848;5.768;2023-07-09T15:16:05;9.68;;;3.53;;
81811;SDS011;71243;51.848;5.768;2023-07-09T15:18:30;9.23;;;3.58;;
81811;SDS011;71243;51.848;5.768;2023-07-09T15:20:57;8.00;;;3.72;;
81811;SDS011;71243;51.848;5.768;2023-07-09T15:23:24;10.88;;;3.92;;
81811;SDS011;71243;51.848;5.768;2023-07-09T15:25:50;10.48;;;3.80;;
81811;SDS011;71243;51.848;5.768;2023-07-09T15:28:16;7.22;;;3.25;;
81811;SDS011;71243;51.848;5.768;2023-07-09T15:30:42;10.68;;;4.07;;
81811;SDS011;71243;51.848;5.768;2023-07-09T15:33:18;9.80;;;3.70;;